NOZ270 ENGM-ENCN
Flight info
| Callsign | NOZ270 |
|---|---|
| Flight time | 0h 38m |
| Altitude | 34000 |
| Route | VIPPA DCT OSVAL |
| Aircraft | B738/M-SDE2E3FGHIRWXY/LB1 |
Departure
| Time | 2026-05-04 09:46 |
|---|---|
| Airport | Oslo-Gardermoen International Airport (ENGM) |
Arrival
| Time | 2026-05-04 10:25 |
|---|---|
| Airport | Kristiansand Airport (ENCN) |
| Time | Latitude | Longitude | Altitude | Speed | Heading |
|---|---|---|---|---|---|
| 2026-05-04 09:21 | 60.19522 | 11.09735 | 677 ft | 0 kts | 196° |
| 2026-05-04 09:39 | 60.19532 | 11.09740 | 684 ft | 4 kts | 196° |
| 2026-05-04 09:39 | 60.19557 | 11.09755 | 682 ft | 4 kts | 196° |
| 2026-05-04 09:39 | 60.19562 | 11.09758 | 681 ft | 1 kts | 196° |
| 2026-05-04 09:42 | 60.19670 | 11.09476 | 680 ft | 19 kts | 287° |
| 2026-05-04 09:43 | 60.19708 | 11.09216 | 682 ft | 19 kts | 286° |
| 2026-05-04 09:43 | 60.19742 | 11.08973 | 679 ft | 18 kts | 286° |
| 2026-05-04 09:43 | 60.19766 | 11.08806 | 676 ft | 19 kts | 284° |
| 2026-05-04 09:43 | 60.19715 | 11.08638 | 675 ft | 15 kts | 194° |
| 2026-05-04 09:44 | 60.19610 | 11.08577 | 677 ft | 18 kts | 197° |
| 2026-05-04 09:44 | 60.19466 | 11.08494 | 675 ft | 24 kts | 195° |
| 2026-05-04 09:44 | 60.19305 | 11.08400 | 674 ft | 22 kts | 197° |
| 2026-05-04 09:46 | 60.20998 | 11.08772 | 836 ft | 153 kts | 11° |
| 2026-05-04 09:46 | 60.22026 | 11.09342 | 1569 ft | 160 kts | 9° |
| 2026-05-04 09:46 | 60.23175 | 11.09948 | 2157 ft | 175 kts | 7° |
| 2026-05-04 09:47 | 60.24346 | 11.10548 | 2900 ft | 183 kts | 9° |
| 2026-05-04 09:47 | 60.25674 | 11.11227 | 3293 ft | 209 kts | 6° |
| 2026-05-04 09:49 | 60.29451 | 10.97699 | 8228 ft | 264 kts | 218° |
| 2026-05-04 09:49 | 60.27831 | 10.95766 | 9059 ft | 272 kts | 213° |
| 2026-05-04 09:49 | 60.26178 | 10.93977 | 10079 ft | 269 kts | 213° |
| 2026-05-04 09:51 | 60.14375 | 10.80977 | 13169 ft | 346 kts | 214° |
| 2026-05-04 09:51 | 60.12272 | 10.78636 | 14020 ft | 346 kts | 214° |
| 2026-05-04 09:51 | 60.10156 | 10.76290 | 14721 ft | 348 kts | 214° |
| 2026-05-04 09:51 | 60.08025 | 10.73931 | 15413 ft | 352 kts | 214° |
| 2026-05-04 09:52 | 60.05877 | 10.71553 | 16120 ft | 354 kts | 214° |
| 2026-05-04 09:52 | 60.03702 | 10.69165 | 16756 ft | 358 kts | 214° |
| 2026-05-04 09:52 | 60.01535 | 10.66773 | 17363 ft | 362 kts | 215° |
| 2026-05-04 09:52 | 59.99318 | 10.64322 | 18002 ft | 366 kts | 214° |
| 2026-05-04 09:53 | 59.97093 | 10.61865 | 18713 ft | 365 kts | 215° |
| 2026-05-04 09:53 | 59.94862 | 10.59411 | 19306 ft | 367 kts | 215° |
| 2026-05-04 09:53 | 59.92613 | 10.56942 | 19874 ft | 370 kts | 215° |
| 2026-05-04 09:53 | 59.90346 | 10.54456 | 20430 ft | 373 kts | 215° |
| 2026-05-04 09:54 | 59.88068 | 10.51961 | 20987 ft | 375 kts | 215° |
| 2026-05-04 09:54 | 59.85769 | 10.49449 | 21540 ft | 378 kts | 215° |
| 2026-05-04 09:54 | 59.83455 | 10.46923 | 22080 ft | 380 kts | 215° |
| 2026-05-04 09:54 | 59.81129 | 10.44390 | 22591 ft | 383 kts | 215° |
| 2026-05-04 09:55 | 59.78784 | 10.41837 | 23110 ft | 385 kts | 215° |
| 2026-05-04 09:55 | 59.76431 | 10.39290 | 23575 ft | 386 kts | 215° |
| 2026-05-04 09:55 | 59.74043 | 10.36720 | 23724 ft | 394 kts | 215° |
| 2026-05-04 09:55 | 59.71624 | 10.34096 | 24028 ft | 398 kts | 215° |
| 2026-05-04 09:56 | 59.69188 | 10.31455 | 24460 ft | 400 kts | 215° |
| 2026-05-04 09:56 | 59.66735 | 10.28804 | 24852 ft | 402 kts | 214° |
| 2026-05-04 09:56 | 59.64263 | 10.26140 | 25209 ft | 405 kts | 214° |
| 2026-05-04 09:56 | 59.61776 | 10.23475 | 25562 ft | 408 kts | 214° |
| 2026-05-04 09:57 | 59.59304 | 10.20821 | 25899 ft | 411 kts | 214° |
| 2026-05-04 09:57 | 59.56786 | 10.18120 | 26232 ft | 413 kts | 214° |
| 2026-05-04 09:57 | 59.54281 | 10.15328 | 26567 ft | 414 kts | 217° |
| 2026-05-04 09:57 | 59.51841 | 10.12290 | 26912 ft | 415 kts | 219° |
| 2026-05-04 09:58 | 59.49434 | 10.09149 | 27284 ft | 414 kts | 219° |
| 2026-05-04 09:58 | 59.47043 | 10.05994 | 27661 ft | 415 kts | 219° |
| 2026-05-04 09:58 | 59.44639 | 10.02833 | 28066 ft | 416 kts | 219° |
| 2026-05-04 10:00 | 59.27711 | 9.81120 | 29778 ft | 416 kts | 218° |
| 2026-05-04 10:00 | 59.25289 | 9.78059 | 29773 ft | 413 kts | 218° |
| 2026-05-04 10:02 | 59.08304 | 9.56687 | 28839 ft | 412 kts | 219° |
| 2026-05-04 10:04 | 58.92191 | 9.36668 | 25890 ft | 382 kts | 218° |
| 2026-05-04 10:04 | 58.89937 | 9.33871 | 25643 ft | 388 kts | 218° |
| 2026-05-04 10:04 | 58.87652 | 9.31048 | 25413 ft | 388 kts | 218° |
| 2026-05-04 10:04 | 58.85386 | 9.28257 | 25138 ft | 384 kts | 218° |
| 2026-05-04 10:05 | 58.83146 | 9.25505 | 24749 ft | 379 kts | 218° |
| 2026-05-04 10:05 | 58.80933 | 9.22786 | 24302 ft | 375 kts | 218° |
| 2026-05-04 10:05 | 58.78769 | 9.20134 | 23851 ft | 371 kts | 218° |
| 2026-05-04 10:05 | 58.76596 | 9.17483 | 23404 ft | 367 kts | 218° |
| 2026-05-04 10:06 | 58.74447 | 9.14860 | 22864 ft | 364 kts | 218° |
| 2026-05-04 10:06 | 58.72318 | 9.12262 | 22382 ft | 359 kts | 218° |
| 2026-05-04 10:06 | 58.70219 | 9.09714 | 21896 ft | 355 kts | 218° |
| 2026-05-04 10:08 | 58.58101 | 8.94996 | 19296 ft | 336 kts | 218° |
| 2026-05-04 10:08 | 58.56132 | 8.92618 | 18865 ft | 334 kts | 218° |
| 2026-05-04 10:08 | 58.54172 | 8.90256 | 18439 ft | 332 kts | 218° |
| 2026-05-04 10:08 | 58.52219 | 8.87905 | 18003 ft | 331 kts | 218° |
| 2026-05-04 10:09 | 58.50274 | 8.85565 | 17531 ft | 329 kts | 218° |
| 2026-05-04 10:09 | 58.48343 | 8.83247 | 17073 ft | 327 kts | 218° |
| 2026-05-04 10:09 | 58.46431 | 8.80955 | 16677 ft | 323 kts | 218° |
| 2026-05-04 10:09 | 58.44525 | 8.78674 | 16236 ft | 322 kts | 218° |
| 2026-05-04 10:10 | 58.42631 | 8.76408 | 15808 ft | 320 kts | 218° |
| 2026-05-04 10:10 | 58.40752 | 8.74163 | 15408 ft | 318 kts | 218° |
| 2026-05-04 10:10 | 58.38880 | 8.71929 | 14991 ft | 316 kts | 218° |
| 2026-05-04 10:10 | 58.37020 | 8.69712 | 14590 ft | 315 kts | 217° |
| 2026-05-04 10:11 | 58.35168 | 8.67508 | 14185 ft | 313 kts | 217° |
| 2026-05-04 10:11 | 58.33323 | 8.65316 | 13789 ft | 312 kts | 217° |
| 2026-05-04 10:11 | 58.31485 | 8.63134 | 13354 ft | 311 kts | 217° |
| 2026-05-04 10:11 | 58.29657 | 8.60966 | 12927 ft | 309 kts | 217° |
| 2026-05-04 10:12 | 58.27835 | 8.58808 | 12530 ft | 307 kts | 217° |
| 2026-05-04 10:12 | 58.26031 | 8.56674 | 12121 ft | 305 kts | 217° |
| 2026-05-04 10:12 | 58.24224 | 8.54538 | 11724 ft | 307 kts | 217° |
| 2026-05-04 10:12 | 58.22421 | 8.52409 | 11329 ft | 310 kts | 216° |
| 2026-05-04 10:13 | 58.20569 | 8.50222 | 10930 ft | 317 kts | 216° |
| 2026-05-04 10:13 | 58.18686 | 8.48005 | 10509 ft | 320 kts | 216° |
| 2026-05-04 10:13 | 58.16796 | 8.45784 | 10098 ft | 318 kts | 216° |
| 2026-05-04 10:13 | 58.14919 | 8.43584 | 9695 ft | 316 kts | 216° |
| 2026-05-04 10:14 | 58.13052 | 8.41396 | 9241 ft | 314 kts | 216° |
| 2026-05-04 10:14 | 58.11202 | 8.39225 | 8819 ft | 312 kts | 216° |
| 2026-05-04 10:16 | 57.98568 | 8.24494 | 6125 ft | 298 kts | 215° |
| 2026-05-04 10:16 | 57.96818 | 8.22465 | 5908 ft | 291 kts | 215° |
| 2026-05-04 10:16 | 57.95190 | 8.20420 | 5759 ft | 279 kts | 226° |
| 2026-05-04 10:16 | 57.94145 | 8.17527 | 5646 ft | 262 kts | 253° |
| 2026-05-04 10:17 | 57.93889 | 8.14257 | 5557 ft | 247 kts | 274° |
| 2026-05-04 10:17 | 57.94185 | 8.11124 | 5456 ft | 242 kts | 290° |
| 2026-05-04 10:19 | 58.00278 | 7.94305 | 4724 ft | 198 kts | 306° |
| 2026-05-04 10:19 | 58.01072 | 7.92180 | 4530 ft | 199 kts | 306° |
| 2026-05-04 10:19 | 58.01854 | 7.90082 | 4327 ft | 192 kts | 306° |
| 2026-05-04 10:19 | 58.02701 | 7.88252 | 4053 ft | 186 kts | 328° |
| 2026-05-04 10:20 | 58.03945 | 7.87932 | 3858 ft | 190 kts | 13° |
| 2026-05-04 10:20 | 58.05135 | 7.88983 | 3670 ft | 188 kts | 21° |
| 2026-05-04 10:20 | 58.06278 | 7.90117 | 3461 ft | 182 kts | 21° |
| 2026-05-04 10:20 | 58.07373 | 7.91287 | 3242 ft | 179 kts | 26° |
| 2026-05-04 10:21 | 58.08409 | 7.92580 | 3083 ft | 175 kts | 28° |
| 2026-05-04 10:21 | 58.09403 | 7.93808 | 2902 ft | 171 kts | 26° |
| 2026-05-04 10:21 | 58.10389 | 7.95152 | 2666 ft | 177 kts | 30° |
| 2026-05-04 10:21 | 58.11381 | 7.96517 | 2413 ft | 178 kts | 26° |
| 2026-05-04 10:22 | 58.13423 | 7.99231 | 1766 ft | 179 kts | 31° |
| 2026-05-04 10:22 | 58.14417 | 8.00552 | 1543 ft | 170 kts | 28° |
| 2026-05-04 10:22 | 58.15368 | 8.01808 | 1290 ft | 160 kts | 26° |
| 2026-05-04 10:23 | 58.16242 | 8.02982 | 1087 ft | 147 kts | 30° |
| 2026-05-04 10:23 | 58.17067 | 8.04073 | 819 ft | 149 kts | 29° |
| 2026-05-04 10:25 | 58.21127 | 8.09496 | 54 ft | 15 kts | 6° |
| 2026-05-04 10:25 | 58.21126 | 8.09445 | 53 ft | 8 kts | 198° |
| 2026-05-04 10:25 | 58.21041 | 8.09351 | 56 ft | 18 kts | 215° |
| 2026-05-04 10:25 | 58.20937 | 8.09219 | 59 ft | 17 kts | 215° |
| 2026-05-04 10:26 | 58.20840 | 8.09088 | 51 ft | 16 kts | 213° |
| 2026-05-04 10:26 | 58.20749 | 8.08969 | 51 ft | 17 kts | 215° |
| 2026-05-04 10:26 | 58.20641 | 8.08826 | 51 ft | 21 kts | 214° |
| 2026-05-04 10:26 | 58.20518 | 8.08661 | 51 ft | 22 kts | 215° |
| 2026-05-04 10:27 | 58.20415 | 8.08482 | 52 ft | 19 kts | 254° |
| 2026-05-04 10:27 | 58.20465 | 8.08272 | 53 ft | 17 kts | 302° |
| 2026-05-04 10:27 | 58.20443 | 8.08080 | 52 ft | 17 kts | 231° |
| 2026-05-04 10:27 | 58.20368 | 8.07897 | 51 ft | 18 kts | 232° |
| 2026-05-04 10:28 | 58.20290 | 8.07722 | 51 ft | 15 kts | 220° |
| 2026-05-04 10:28 | 58.20212 | 8.07627 | 48 ft | 10 kts | 212° |
| 2026-05-04 10:28 | 58.20199 | 8.07571 | 50 ft | 4 kts | 285° |
| 2026-05-04 10:28 | 58.20213 | 8.07526 | 50 ft | 2 kts | 301° |
| 2026-05-04 10:29 | 58.20215 | 8.07520 | 50 ft | 0 kts | 301° |